createdAt,value
2023-06-13T00:01:05.919Z,14.43
2023-06-13T00:03:35.527Z,14.41
2023-06-13T00:06:03.700Z,14.40
2023-06-13T00:08:35.508Z,14.36
2023-06-13T00:11:03.125Z,14.33
2023-06-13T00:13:30.997Z,14.33
2023-06-13T00:15:59.296Z,14.27
2023-06-13T00:18:31.642Z,14.30
2023-06-13T00:21:00.290Z,14.28
2023-06-13T00:23:28.319Z,14.28
2023-06-13T00:25:57.089Z,14.29
2023-06-13T00:28:25.092Z,14.31
2023-06-13T00:30:53.348Z,14.29
2023-06-13T00:33:21.368Z,14.28
2023-06-13T00:35:49.343Z,14.28
2023-06-13T00:38:19.179Z,14.25
2023-06-13T00:40:48.222Z,14.24
2023-06-13T00:43:19.352Z,14.23
2023-06-13T00:45:48.755Z,14.22
2023-06-13T00:48:17.236Z,14.20
2023-06-13T00:50:45.432Z,14.18
2023-06-13T00:53:20.027Z,14.14
2023-06-13T00:55:50.850Z,14.11
2023-06-13T00:58:19.428Z,14.09
2023-06-13T01:00:47.525Z,14.08
2023-06-13T01:03:16.649Z,14.07
2023-06-13T01:05:47.233Z,14.05
2023-06-13T01:08:20.136Z,14.05
2023-06-13T01:10:53.822Z,14.04
2023-06-13T01:13:31.670Z,14.04
2023-06-13T01:16:10.653Z,14.05
2023-06-13T01:18:43.006Z,14.06
2023-06-13T01:21:13.168Z,14.06
2023-06-13T01:23:56.310Z,14.05
2023-06-13T01:26:45.156Z,14.04
2023-06-13T01:29:18.391Z,14.03
2023-06-13T01:31:54.338Z,14.01
2023-06-13T01:34:23.014Z,14.01
2023-06-13T01:36:52.335Z,14.00
2023-06-13T01:39:20.166Z,14.00
2023-06-13T01:41:49.789Z,14.00
2023-06-13T01:44:22.538Z,13.98
2023-06-13T01:47:24.435Z,13.96
2023-06-13T01:50:15.949Z,13.93
2023-06-13T01:53:07.071Z,13.90
2023-06-13T01:55:45.391Z,13.87
2023-06-13T01:58:38.406Z,13.85
2023-06-13T02:01:08.442Z,13.84
2023-06-13T02:03:37.650Z,13.81
2023-06-13T02:06:05.649Z,13.80
2023-06-13T02:08:35.693Z,13.78
2023-06-13T02:11:04.103Z,13.76
2023-06-13T02:13:32.792Z,13.74
2023-06-13T02:16:05.574Z,13.74
2023-06-13T02:18:35.833Z,13.71
2023-06-13T02:21:04.395Z,13.70
2023-06-13T02:23:33.545Z,13.70
2023-06-13T02:26:01.811Z,13.70
2023-06-13T02:28:29.519Z,13.70
2023-06-13T02:30:57.664Z,13.70
2023-06-13T02:33:25.659Z,13.70
2023-06-13T02:35:53.567Z,13.68
2023-06-13T02:38:21.456Z,13.67
2023-06-13T02:40:49.785Z,13.68
2023-06-13T02:43:17.620Z,13.67
2023-06-13T02:45:45.198Z,13.69
2023-06-13T02:48:13.042Z,13.69
2023-06-13T02:50:41.098Z,13.69
2023-06-13T02:53:09.244Z,13.67
2023-06-13T02:55:38.111Z,13.67
2023-06-13T02:58:07.419Z,13.68
2023-06-13T03:00:35.823Z,13.68
2023-06-13T03:03:05.762Z,13.69
2023-06-13T03:05:34.613Z,13.71
2023-06-13T03:08:03.067Z,13.72
2023-06-13T03:10:30.826Z,13.75
2023-06-13T03:12:58.936Z,13.75
2023-06-13T03:15:27.795Z,13.76
2023-06-13T03:17:58.564Z,13.77
2023-06-13T03:20:28.640Z,13.76
2023-06-13T03:22:58.693Z,13.75
2023-06-13T03:25:26.594Z,13.74
2023-06-13T03:27:54.586Z,13.73
2023-06-13T03:30:22.869Z,13.74
2023-06-13T03:32:52.810Z,13.76
2023-06-13T03:35:22.633Z,13.78
2023-06-13T03:37:50.699Z,13.80
2023-06-13T03:40:19.344Z,13.83
2023-06-13T03:42:47.824Z,13.87
2023-06-13T03:45:17.770Z,13.91
2023-06-13T03:47:46.962Z,13.94
2023-06-13T03:50:21.100Z,13.96
2023-06-13T03:52:49.350Z,13.97
2023-06-13T03:55:17.779Z,13.99
2023-06-13T03:57:47.651Z,14.02
2023-06-13T04:00:16.984Z,14.05
2023-06-13T04:02:45.878Z,14.07
2023-06-13T04:05:14.606Z,14.11
2023-06-13T04:07:44.292Z,14.16
2023-06-13T04:10:14.334Z,14.19
2023-06-13T04:12:44.153Z,14.22
2023-06-13T04:15:12.107Z,14.22
2023-06-13T04:17:41.128Z,14.25
2023-06-13T04:20:29.567Z,14.28
2023-06-13T04:23:00.737Z,14.30
2023-06-13T04:25:36.255Z,14.32
2023-06-13T04:28:14.114Z,14.35
2023-06-13T04:30:46.014Z,14.37
2023-06-13T04:33:18.073Z,14.39
2023-06-13T04:35:50.860Z,14.42
2023-06-13T04:38:21.093Z,14.46
2023-06-13T04:40:55.014Z,14.50
2023-06-13T04:43:26.166Z,14.55
2023-06-13T04:46:02.937Z,14.60
2023-06-13T04:48:36.352Z,14.63
2023-06-13T04:51:08.104Z,14.66
2023-06-13T04:53:41.799Z,14.69
2023-06-13T04:56:11.725Z,14.74
2023-06-13T04:58:46.308Z,14.79
2023-06-13T05:01:16.538Z,14.80
2023-06-13T05:03:46.443Z,14.83
2023-06-13T05:06:14.561Z,14.90
2023-06-13T05:08:42.756Z,14.94
2023-06-13T05:11:12.601Z,14.97
2023-06-13T05:13:40.450Z,15.03
2023-06-13T05:16:10.148Z,15.09
2023-06-13T05:18:40.032Z,15.17
2023-06-13T05:21:08.718Z,15.28
2023-06-13T05:23:38.598Z,15.37
2023-06-13T05:26:06.766Z,15.42
2023-06-13T05:28:34.702Z,15.51
2023-06-13T05:31:02.873Z,15.58
2023-06-13T05:33:33.804Z,15.61
2023-06-13T05:36:01.759Z,15.66
2023-06-13T05:38:29.588Z,15.71
2023-06-13T05:40:57.755Z,15.79
2023-06-13T05:43:25.671Z,15.85
2023-06-13T05:45:53.874Z,15.89
2023-06-13T05:48:21.456Z,15.95
2023-06-13T05:50:49.289Z,16.01
2023-06-13T05:53:17.130Z,16.09
2023-06-13T05:55:45.366Z,16.16
2023-06-13T05:58:13.479Z,16.20
2023-06-13T06:00:42.960Z,16.16
2023-06-13T06:03:11.050Z,16.11
2023-06-13T06:05:43.849Z,16.11
2023-06-13T06:08:12.708Z,16.13
2023-06-13T06:10:40.593Z,16.10
2023-06-13T06:13:08.388Z,16.05
2023-06-13T06:15:36.382Z,16.06
2023-06-13T06:18:04.673Z,16.10
2023-06-13T06:20:32.607Z,16.12
2023-06-13T06:23:00.521Z,16.15
2023-06-13T06:25:28.565Z,16.15
2023-06-13T06:27:57.474Z,16.14
2023-06-13T06:30:26.545Z,16.10
2023-06-13T06:32:56.085Z,16.02
2023-06-13T06:35:24.380Z,15.99
2023-06-13T06:37:52.183Z,15.99
2023-06-13T06:40:20.316Z,15.97
2023-06-13T06:42:48.908Z,15.92
2023-06-13T06:45:18.850Z,15.83
2023-06-13T06:47:47.155Z,15.76
2023-06-13T06:50:15.558Z,15.68
2023-06-13T06:52:44.120Z,15.63
2023-06-13T06:55:12.338Z,15.53
2023-06-13T06:57:40.576Z,15.42
2023-06-13T07:00:13.799Z,15.33
2023-06-13T07:02:43.382Z,15.31
2023-06-13T07:05:12.429Z,15.33
2023-06-13T07:07:41.108Z,15.31
2023-06-13T07:10:14.510Z,15.28
2023-06-13T07:12:43.079Z,15.28
2023-06-13T07:15:10.884Z,15.31
2023-06-13T07:17:38.976Z,15.33
2023-06-13T07:20:12.356Z,15.37
2023-06-13T07:22:41.363Z,15.38
2023-06-13T07:25:09.311Z,15.38
2023-06-13T07:27:38.180Z,15.37
2023-06-13T07:30:09.395Z,15.36
2023-06-13T07:32:37.218Z,15.38
2023-06-13T07:35:07.087Z,15.39
2023-06-13T07:37:35.101Z,15.41
2023-06-13T07:40:06.216Z,15.41
2023-06-13T07:42:34.190Z,15.42
2023-06-13T07:45:02.236Z,15.44
2023-06-13T07:47:30.297Z,15.45
2023-06-13T07:49:58.385Z,15.46
2023-06-13T07:52:26.412Z,15.45
2023-06-13T07:54:54.434Z,15.44
2023-06-13T07:59:55.253Z,15.46
2023-06-13T08:02:24.974Z,15.47
2023-06-13T08:04:55.673Z,15.45
2023-06-13T08:07:23.169Z,15.44
2023-06-13T08:09:51.223Z,15.42
2023-06-13T08:12:19.143Z,15.38
2023-06-13T08:14:46.928Z,15.37
2023-06-13T08:17:14.895Z,15.35
2023-06-13T08:19:42.722Z,15.33
2023-06-13T08:22:10.544Z,15.35
2023-06-13T08:24:38.586Z,15.35
2023-06-13T08:27:08.499Z,15.34
2023-06-13T08:29:36.397Z,15.32
2023-06-13T08:32:05.327Z,15.32
2023-06-13T08:34:33.595Z,15.33
2023-06-13T08:37:01.733Z,15.36
2023-06-13T08:39:29.598Z,15.39
2023-06-13T08:42:04.338Z,15.46
2023-06-13T08:44:32.337Z,15.55
2023-06-13T08:47:00.400Z,15.64
2023-06-13T08:49:28.417Z,15.74
2023-06-13T08:51:59.363Z,15.82
2023-06-13T08:54:29.717Z,15.85
2023-06-13T08:57:00.040Z,15.94
2023-06-13T08:59:28.181Z,16.06
2023-06-13T09:01:58.077Z,16.16
2023-06-13T09:04:30.653Z,16.31
2023-06-13T09:06:59.419Z,16.36
2023-06-13T09:09:28.431Z,16.48
2023-06-13T09:11:57.773Z,16.68
2023-06-13T09:14:25.606Z,16.86
2023-06-13T09:16:56.472Z,16.92
2023-06-13T09:19:24.618Z,16.99
2023-06-13T09:21:53.247Z,17.00
2023-06-13T09:24:21.965Z,17.02
2023-06-13T09:26:50.888Z,17.05
2023-06-13T09:29:27.185Z,17.03
2023-06-13T09:31:49.804Z,16.98
2023-06-13T09:34:18.692Z,16.94
2023-06-13T09:36:48.262Z,16.97
2023-06-13T09:39:19.876Z,16.97
2023-06-13T09:41:57.287Z,16.92
2023-06-13T09:47:06.263Z,17.06
2023-06-13T09:49:45.014Z,17.09
2023-06-13T09:52:09.768Z,17.14
2023-06-13T09:54:42.059Z,17.18
2023-06-13T09:57:13.476Z,17.24
2023-06-13T09:59:43.209Z,17.31
2023-06-13T10:02:11.793Z,17.41
2023-06-13T10:04:40.758Z,17.51
2023-06-13T10:07:08.486Z,17.65
2023-06-13T10:09:36.797Z,17.85
2023-06-13T10:12:09.575Z,18.02
2023-06-13T10:14:41.554Z,18.17
2023-06-13T10:17:13.319Z,18.24
2023-06-13T10:19:42.775Z,18.37
2023-06-13T10:22:13.606Z,18.65
2023-06-13T10:24:42.396Z,18.88
2023-06-13T10:27:11.960Z,19.14
2023-06-13T10:29:57.660Z,19.32
2023-06-13T10:32:54.868Z,19.43
2023-06-13T10:35:34.317Z,19.53
2023-06-13T10:38:34.759Z,19.58
2023-06-13T10:41:40.459Z,19.77
2023-06-13T10:44:22.585Z,19.84
2023-06-13T10:47:21.979Z,19.81
2023-06-13T10:49:55.397Z,19.73
2023-06-13T10:52:27.139Z,19.63
2023-06-13T10:55:05.128Z,19.70
2023-06-13T10:57:52.362Z,19.57
2023-06-13T11:00:34.307Z,19.48
2023-06-13T11:03:12.152Z,19.58
2023-06-13T11:05:50.938Z,19.66
2023-06-13T11:08:25.410Z,19.66
2023-06-13T11:10:54.291Z,19.85
2023-06-13T11:13:26.257Z,20.01
2023-06-13T11:16:20.465Z,20.13
2023-06-13T11:18:49.425Z,20.34
2023-06-13T11:21:19.231Z,20.42
2023-06-13T11:23:58.066Z,20.36
2023-06-13T11:26:28.700Z,20.33
2023-06-13T11:28:56.523Z,20.41
2023-06-13T11:31:24.870Z,20.45
2023-06-13T11:33:55.374Z,20.45
2023-06-13T11:36:31.044Z,20.35
2023-06-13T11:39:01.017Z,20.22
2023-06-13T11:41:30.757Z,20.13
2023-06-13T11:44:02.494Z,20.22
2023-06-13T11:46:31.435Z,20.26
2023-06-13T11:48:59.585Z,20.39
2023-06-13T11:51:35.626Z,20.50
2023-06-13T11:54:03.892Z,20.57
2023-06-13T11:56:33.869Z,20.63
2023-06-13T11:59:20.895Z,20.77
2023-06-13T12:01:54.094Z,20.93
2023-06-13T12:04:27.345Z,20.95
2023-06-13T12:06:55.602Z,20.92
2023-06-13T12:09:23.661Z,20.99
2023-06-13T12:11:52.431Z,20.95
2023-06-13T12:14:21.342Z,20.96
2023-06-13T12:16:54.592Z,21.04
2023-06-13T12:19:24.058Z,21.08
2023-06-13T12:21:59.747Z,21.04
2023-06-13T12:24:30.583Z,21.01
2023-06-13T12:26:59.073Z,20.93
2023-06-13T12:29:29.473Z,20.78
2023-06-13T12:32:04.793Z,20.75
2023-06-13T12:34:37.501Z,20.73
2023-06-13T12:37:09.188Z,20.69
2023-06-13T12:39:38.377Z,20.68
2023-06-13T12:42:10.149Z,20.65
2023-06-13T12:44:39.331Z,20.59
2023-06-13T12:47:09.016Z,20.51
2023-06-13T12:49:41.154Z,20.42
2023-06-13T12:52:17.521Z,20.28
2023-06-13T12:54:46.366Z,20.18
2023-06-13T12:57:22.126Z,20.08
2023-06-13T13:00:03.502Z,20.05
2023-06-13T13:02:42.526Z,20.01
2023-06-13T13:05:10.976Z,19.90
2023-06-13T13:07:38.626Z,19.78
2023-06-13T13:10:09.448Z,19.69
2023-06-13T13:12:37.151Z,19.65
2023-06-13T13:15:05.862Z,19.58
2023-06-13T13:17:34.747Z,19.51
2023-06-13T13:20:03.894Z,19.40
2023-06-13T13:22:31.866Z,19.33
2023-06-13T13:24:59.838Z,19.28
2023-06-13T13:27:27.692Z,19.23
2023-06-13T13:29:57.577Z,19.20
2023-06-13T13:32:27.630Z,19.16
2023-06-13T13:34:57.985Z,19.08
2023-06-13T13:37:25.870Z,19.04
2023-06-13T13:39:53.508Z,19.02
2023-06-13T13:42:26.279Z,19.01
2023-06-13T13:44:50.660Z,18.99
2023-06-13T13:47:18.217Z,18.96
2023-06-13T13:49:45.983Z,18.93
2023-06-13T13:52:15.002Z,18.85
2023-06-13T13:54:43.158Z,18.75
2023-06-13T13:57:11.209Z,18.71
2023-06-13T13:59:38.716Z,18.67
2023-06-13T14:02:06.589Z,18.65
2023-06-13T14:04:35.075Z,18.62
2023-06-13T14:07:03.136Z,18.56
2023-06-13T14:09:32.490Z,18.51
2023-06-13T14:12:00.551Z,18.44
2023-06-13T14:14:31.865Z,18.40
2023-06-13T14:16:59.565Z,18.35
2023-06-13T14:19:36.783Z,18.26
2023-06-13T14:22:04.997Z,18.15
2023-06-13T14:24:34.193Z,18.10
2023-06-13T14:27:02.094Z,18.08
2023-06-13T14:29:30.620Z,18.02
2023-06-13T14:31:58.555Z,17.92
2023-06-13T14:34:28.731Z,17.81
2023-06-13T14:36:58.008Z,17.73
2023-06-13T14:39:25.755Z,17.61
2023-06-13T14:41:53.443Z,17.52
2023-06-13T14:44:21.139Z,17.47
2023-06-13T14:46:48.994Z,17.46
2023-06-13T14:49:18.675Z,17.49
2023-06-13T14:51:46.535Z,17.50
2023-06-13T14:54:16.817Z,17.49
2023-06-13T14:56:44.859Z,17.47
2023-06-13T14:59:13.302Z,17.44
2023-06-13T15:01:41.420Z,17.36
2023-06-13T15:04:09.678Z,17.29
2023-06-13T15:06:38.027Z,17.23
2023-06-13T15:09:05.853Z,17.20
2023-06-13T15:11:34.742Z,17.19
2023-06-13T15:14:03.452Z,17.20
2023-06-13T15:16:34.352Z,17.21
2023-06-13T15:19:03.016Z,17.21
2023-06-13T15:21:31.457Z,17.23
2023-06-13T15:24:00.276Z,17.25
2023-06-13T15:26:28.680Z,17.24
2023-06-13T15:28:57.469Z,17.20
2023-06-13T15:31:26.964Z,17.14
2023-06-13T15:33:54.854Z,17.12
2023-06-13T15:36:22.428Z,17.11
2023-06-13T15:38:50.091Z,17.07
2023-06-13T15:41:17.813Z,17.07
2023-06-13T15:43:45.774Z,17.05
2023-06-13T15:46:13.342Z,17.04
2023-06-13T15:48:41.155Z,17.02
2023-06-13T15:51:09.293Z,17.02
2023-06-13T15:53:38.899Z,17.05
2023-06-13T15:56:07.523Z,17.07
2023-06-13T15:58:37.757Z,17.12
2023-06-13T16:01:06.843Z,17.14
2023-06-13T16:03:34.818Z,17.18
2023-06-13T16:06:06.554Z,17.19
2023-06-13T16:08:37.480Z,17.19
2023-06-13T16:11:05.935Z,17.20
2023-06-13T16:13:36.870Z,17.19
2023-06-13T16:16:10.332Z,17.23
2023-06-13T16:18:38.704Z,17.25
2023-06-13T16:21:07.990Z,17.25
2023-06-13T16:23:37.310Z,17.27
2023-06-13T16:26:07.983Z,17.27
2023-06-13T16:28:37.941Z,17.26
2023-06-13T16:31:06.349Z,17.28
2023-06-13T16:33:38.469Z,17.28
2023-06-13T16:36:06.988Z,17.32
2023-06-13T16:38:38.642Z,17.37
2023-06-13T16:41:08.841Z,17.38
2023-06-13T16:43:37.593Z,17.39
2023-06-13T16:46:08.098Z,17.41
2023-06-13T16:48:36.546Z,17.43
2023-06-13T16:51:05.868Z,17.43
2023-06-13T16:53:37.601Z,17.45
2023-06-13T16:56:05.855Z,17.42
2023-06-13T16:58:34.221Z,17.38
2023-06-13T17:01:04.790Z,17.37
2023-06-13T17:03:32.752Z,17.33
2023-06-13T17:06:00.482Z,17.29
2023-06-13T17:08:28.973Z,17.26
2023-06-13T17:10:57.757Z,17.20
2023-06-13T17:13:26.213Z,17.14
2023-06-13T17:15:54.248Z,17.07
2023-06-13T17:18:22.241Z,17.01
2023-06-13T17:20:52.065Z,16.97
2023-06-13T17:23:19.772Z,16.89
2023-06-13T17:25:47.416Z,16.84
2023-06-13T17:28:15.665Z,16.80
2023-06-13T17:30:43.736Z,16.76
2023-06-13T17:33:12.534Z,16.73
2023-06-13T17:35:40.452Z,16.70
2023-06-13T17:38:08.362Z,16.63
2023-06-13T17:40:36.531Z,16.58
2023-06-13T17:43:04.659Z,16.55
2023-06-13T17:45:33.662Z,16.50
2023-06-13T17:48:03.653Z,16.44
2023-06-13T17:50:31.373Z,16.39
2023-06-13T17:52:59.013Z,16.35
2023-06-13T17:55:27.577Z,16.30
2023-06-13T17:57:55.506Z,16.25
2023-06-13T18:00:23.338Z,16.22
2023-06-13T18:02:54.359Z,16.18
2023-06-13T18:05:22.332Z,16.14
2023-06-13T18:07:52.223Z,16.12
2023-06-13T18:10:22.132Z,16.10
2023-06-13T18:12:50.634Z,16.08
2023-06-13T18:15:19.193Z,16.05
2023-06-13T18:17:47.898Z,15.94
2023-06-13T18:20:45.212Z,15.98
2023-06-13T18:30:01.944Z,15.91
2023-06-13T18:36:11.284Z,15.87
2023-06-13T18:45:35.027Z,15.73
2023-06-13T18:48:04.166Z,15.70
2023-06-13T19:03:26.416Z,15.57
2023-06-13T19:05:58.092Z,15.55
2023-06-13T19:08:28.477Z,15.54
2023-06-13T19:10:59.873Z,15.51
2023-06-13T19:13:28.526Z,15.52
2023-06-13T19:15:57.101Z,15.51
2023-06-13T19:18:25.855Z,15.53
2023-06-13T19:20:54.587Z,15.51
2023-06-13T19:23:25.130Z,15.52
2023-06-13T19:25:54.474Z,15.51
2023-06-13T19:28:23.711Z,15.50
2023-06-13T19:30:54.796Z,15.50
2023-06-13T19:33:23.662Z,15.51
2023-06-13T19:35:52.708Z,15.52
2023-06-13T19:38:33.969Z,15.52
2023-06-13T19:41:02.961Z,15.50
2023-06-13T19:43:32.053Z,15.50
2023-06-13T19:46:01.096Z,15.51
2023-06-13T19:48:30.230Z,15.53
2023-06-13T19:51:06.400Z,15.53
2023-06-13T19:53:33.430Z,15.53
2023-06-13T19:56:03.725Z,15.53
2023-06-13T19:58:33.290Z,15.55
2023-06-13T20:01:03.613Z,15.54
2023-06-13T20:03:32.037Z,15.54
2023-06-13T20:06:00.342Z,15.50
2023-06-13T20:08:29.323Z,15.49
2023-06-13T20:10:57.425Z,15.46
2023-06-13T20:13:25.796Z,15.46
2023-06-13T20:15:54.239Z,15.44
2023-06-13T20:18:22.925Z,15.43
2023-06-13T20:21:00.291Z,15.43
2023-06-13T20:23:31.028Z,15.33
2023-06-13T20:25:59.682Z,15.43
2023-06-13T20:28:28.582Z,15.41
2023-06-13T20:30:56.714Z,15.39
2023-06-13T20:33:25.034Z,15.39
2023-06-13T20:35:54.031Z,15.39
2023-06-13T20:38:28.580Z,15.41
2023-06-13T20:40:59.793Z,15.42
2023-06-13T20:43:30.172Z,15.41
2023-06-13T20:46:00.854Z,15.43
2023-06-13T20:48:30.988Z,15.42
2023-06-13T20:51:01.512Z,15.41
2023-06-13T20:53:39.698Z,15.41
2023-06-13T20:56:08.378Z,15.40
2023-06-13T20:58:36.637Z,15.40
2023-06-13T21:01:04.785Z,15.40
2023-06-13T21:03:34.802Z,15.41
2023-06-13T21:06:02.847Z,15.42
2023-06-13T21:08:32.879Z,15.43
2023-06-13T21:11:04.477Z,15.42
2023-06-13T21:13:32.881Z,15.42
2023-06-13T21:16:01.429Z,15.40
2023-06-13T21:18:29.670Z,15.39
2023-06-13T21:20:58.064Z,15.39
2023-06-13T21:23:26.326Z,15.38
2023-06-13T21:25:54.403Z,15.38
2023-06-13T21:28:22.507Z,15.38
2023-06-13T21:30:52.471Z,15.37
2023-06-13T21:33:21.540Z,15.37
2023-06-13T21:35:52.119Z,15.37
2023-06-13T21:38:21.414Z,15.38
2023-06-13T21:40:52.568Z,15.36
2023-06-13T21:43:20.463Z,15.36
2023-06-13T21:45:52.523Z,15.36
2023-06-13T21:48:21.673Z,15.35
2023-06-13T21:50:49.589Z,15.34
2023-06-13T21:53:18.031Z,15.33
2023-06-13T21:55:46.860Z,15.32
2023-06-13T21:58:16.722Z,15.32
2023-06-13T22:00:45.132Z,15.31
2023-06-13T22:03:13.911Z,15.33
2023-06-13T22:05:42.431Z,15.33
2023-06-13T22:08:11.810Z,15.33
2023-06-13T22:10:41.601Z,15.33
2023-06-13T22:13:11.694Z,15.32
2023-06-13T22:15:44.826Z,15.31
2023-06-13T22:18:16.386Z,15.29
2023-06-13T22:20:44.921Z,15.29
2023-06-13T22:23:13.528Z,15.28
2023-06-13T22:25:41.903Z,15.28
2023-06-13T22:28:12.299Z,15.29
2023-06-13T22:30:45.020Z,15.26
2023-06-13T22:33:16.808Z,15.28
2023-06-13T22:35:45.764Z,15.28
2023-06-13T22:38:15.737Z,15.28
2023-06-13T22:40:47.350Z,15.22
2023-06-13T22:43:16.205Z,15.26
2023-06-13T22:45:44.368Z,15.25
2023-06-13T22:48:12.359Z,15.24
2023-06-13T22:50:40.698Z,15.26
2023-06-13T22:53:08.580Z,15.26
2023-06-13T22:55:36.451Z,15.24
2023-06-13T22:58:06.580Z,15.23
2023-06-13T23:00:35.824Z,15.23
2023-06-13T23:03:05.393Z,15.21
2023-06-13T23:05:33.274Z,15.19
2023-06-13T23:08:01.303Z,15.17
2023-06-13T23:10:29.647Z,15.15
2023-06-13T23:12:57.752Z,15.13
2023-06-13T23:15:25.564Z,15.11
2023-06-13T23:17:53.836Z,15.11
2023-06-13T23:20:22.300Z,15.07
2023-06-13T23:22:50.329Z,15.00
2023-06-13T23:25:25.479Z,15.08
2023-06-13T23:28:06.434Z,15.07
2023-06-13T23:30:40.654Z,15.06
2023-06-13T23:33:22.603Z,15.04
2023-06-13T23:39:36.347Z,15.02
2023-06-13T23:41:48.880Z,14.99
2023-06-13T23:44:17.110Z,14.96
2023-06-13T23:46:45.760Z,14.97
2023-06-13T23:49:14.794Z,14.96
2023-06-13T23:51:42.880Z,14.96
2023-06-13T23:54:10.871Z,14.95
2023-06-13T23:56:38.852Z,14.96
2023-06-13T23:59:06.904Z,14.96
